createdAt,value
2018-07-06T00:02:35.076Z,97719.12
2018-07-06T00:05:15.285Z,97714.27
2018-07-06T00:07:55.184Z,97709.39
2018-07-06T00:10:35.295Z,97713.56
2018-07-06T00:13:15.004Z,97714.61
2018-07-06T00:15:54.970Z,97705.95
2018-07-06T00:18:35.983Z,97710.16
2018-07-06T00:21:16.608Z,97712.77
2018-07-06T00:23:56.445Z,97708.22
2018-07-06T00:26:36.175Z,97705.50
2018-07-06T00:29:16.724Z,97708.28
2018-07-06T00:31:56.933Z,97700.42
2018-07-06T00:34:36.641Z,97700.31
2018-07-06T00:37:17.014Z,97703.03
2018-07-06T00:39:56.718Z,97706.66
2018-07-06T00:42:36.430Z,97711.43
2018-07-06T00:45:16.892Z,97706.21
2018-07-06T00:47:56.942Z,97710.87
2018-07-06T00:50:37.368Z,97714.70
2018-07-06T00:53:17.139Z,97720.26
2018-07-06T00:55:57.222Z,97725.25
2018-07-06T00:58:37.996Z,97728.00
2018-07-06T01:01:18.454Z,97728.23
2018-07-06T01:03:58.387Z,97735.50
2018-07-06T01:06:38.311Z,97735.50
2018-07-06T01:09:18.418Z,97728.58
2018-07-06T01:12:02.395Z,97726.98
2018-07-06T01:14:42.277Z,97728.77
2018-07-06T01:17:22.200Z,97735.92
2018-07-06T01:20:02.148Z,97730.48
2018-07-06T01:22:42.685Z,97704.86
2018-07-06T01:25:22.491Z,97735.50
2018-07-06T01:28:02.291Z,97732.09
2018-07-06T01:30:42.039Z,97731.61
2018-07-06T01:33:21.738Z,97728.91
2018-07-06T01:36:01.461Z,97730.48
2018-07-06T01:38:41.207Z,97737.06
2018-07-06T01:41:21.123Z,97728.66
2018-07-06T01:44:01.829Z,97733.58
2018-07-06T01:46:41.638Z,97727.11
2018-07-06T01:49:21.230Z,97727.11
2018-07-06T01:52:00.893Z,97722.58
2018-07-06T01:54:40.599Z,97721.67
2018-07-06T01:57:21.156Z,97724.94
2018-07-06T02:00:00.811Z,97717.56
2018-07-06T02:02:40.822Z,97720.53
2018-07-06T02:05:20.799Z,97721.22
2018-07-06T02:08:01.425Z,97718.12
2018-07-06T02:10:41.255Z,97724.83
2018-07-06T02:13:20.807Z,97720.28
2018-07-06T02:16:00.706Z,97727.44
2018-07-06T02:18:40.835Z,97726.19
2018-07-06T02:21:20.993Z,97724.83
2018-07-06T02:24:00.779Z,97729.82
2018-07-06T02:26:40.558Z,97729.81
2018-07-06T02:29:20.740Z,97728.47
2018-07-06T02:32:00.518Z,97729.69
2018-07-06T02:34:41.038Z,97723.80
2018-07-06T02:37:21.369Z,97724.83
2018-07-06T02:40:01.880Z,97727.30
2018-07-06T02:42:42.397Z,97720.30
2018-07-06T02:45:22.160Z,97721.86
2018-07-06T02:48:02.034Z,97717.31
2018-07-06T02:50:41.732Z,97722.65
2018-07-06T02:53:21.540Z,97717.20
2018-07-06T02:56:01.323Z,97722.10
2018-07-06T02:58:41.316Z,97715.17
2018-07-06T03:01:21.198Z,97721.19
2018-07-06T03:04:01.603Z,97715.73
2018-07-06T03:06:41.585Z,97710.30
2018-07-06T03:09:21.550Z,97712.34
2018-07-06T03:12:01.546Z,97720.74
2018-07-06T03:14:41.393Z,97713.70
2018-07-06T03:17:22.527Z,97715.07
2018-07-06T03:20:02.273Z,97717.34
2018-07-06T03:22:41.988Z,97723.01
2018-07-06T03:25:21.610Z,97719.95
2018-07-06T03:28:01.284Z,97722.76
2018-07-06T03:30:41.154Z,97723.45
2018-07-06T03:33:20.928Z,97729.80
2018-07-06T03:36:00.705Z,97726.40
2018-07-06T03:38:41.314Z,97727.23
2018-07-06T03:41:21.163Z,97729.05
2018-07-06T03:44:01.097Z,97724.05
2018-07-06T03:46:40.915Z,97728.48
2018-07-06T03:49:20.488Z,97726.08
2018-07-06T03:52:00.253Z,97735.59
2018-07-06T03:54:39.858Z,97729.70
2018-07-06T03:57:19.852Z,97730.05
2018-07-06T03:59:59.669Z,97736.62
2018-07-06T04:02:40.243Z,97740.47
2018-07-06T04:05:20.036Z,97737.87
2018-07-06T04:08:00.723Z,97738.77
2018-07-06T04:10:40.474Z,97743.44
2018-07-06T04:13:20.424Z,97749.77
2018-07-06T04:16:00.285Z,97748.97
2018-07-06T04:18:39.871Z,97750.56
2018-07-06T04:21:19.575Z,97749.41
2018-07-06T04:23:59.481Z,97753.30
2018-07-06T04:26:39.181Z,97755.23
2018-07-06T04:29:19.676Z,97754.10
2018-07-06T04:32:00.211Z,97752.84
2018-07-06T04:34:40.027Z,97761.14
2018-07-06T04:37:19.784Z,97765.20
2018-07-06T04:39:59.312Z,97766.92
2018-07-06T04:42:39.007Z,97773.52
2018-07-06T04:45:18.742Z,97774.08
2018-07-06T04:47:59.030Z,97777.03
2018-07-06T04:50:39.293Z,97780.88
2018-07-06T04:53:19.102Z,97779.95
2018-07-06T04:55:58.686Z,97782.36
2018-07-06T04:58:38.936Z,97776.33
2018-07-06T05:01:18.686Z,97778.81
2018-07-06T05:03:58.329Z,97785.98
2018-07-06T05:06:38.910Z,97785.16
2018-07-06T05:09:18.574Z,97793.08
2018-07-06T05:11:58.291Z,97783.00
2018-07-06T05:14:38.738Z,97791.16
2018-07-06T05:17:18.662Z,97793.55
2018-07-06T05:19:58.401Z,97797.08
2018-07-06T05:22:38.193Z,97795.03
2018-07-06T05:25:17.711Z,97797.98
2018-07-06T05:27:57.404Z,97791.85
2018-07-06T05:30:38.106Z,97798.11
2018-07-06T05:33:17.855Z,97793.81
2018-07-06T05:35:57.506Z,97797.66
2018-07-06T05:38:37.278Z,97803.21
2018-07-06T05:41:17.013Z,97797.18
2018-07-06T05:43:56.901Z,97797.87
2018-07-06T05:46:36.553Z,97798.46
2018-07-06T05:49:16.396Z,97804.91
2018-07-06T05:51:56.058Z,97807.30
2018-07-06T05:54:35.756Z,97814.78
2018-07-06T05:57:15.507Z,97818.78
2018-07-06T05:59:55.210Z,97820.13
2018-07-06T06:02:34.909Z,97825.69
2018-07-06T06:05:14.796Z,97824.53
2018-07-06T06:07:42.078Z,97825.74
2018-07-06T06:10:10.919Z,97827.26
2018-07-06T06:12:39.484Z,97828.84
2018-07-06T06:15:08.182Z,97837.14
2018-07-06T06:17:36.846Z,97834.88
2018-07-06T06:20:05.552Z,97833.28
2018-07-06T06:22:34.158Z,97845.33
2018-07-06T06:25:02.756Z,97844.05
2018-07-06T06:27:31.832Z,97842.88
2018-07-06T06:30:00.639Z,97849.58
2018-07-06T06:32:29.356Z,97848.67
2018-07-06T06:34:57.959Z,97851.98
2018-07-06T06:37:26.789Z,97856.66
2018-07-06T06:39:55.511Z,97725.90
2018-07-06T06:42:24.201Z,97857.58
2018-07-06T06:44:53.847Z,97860.95
2018-07-06T06:47:22.639Z,97859.10
2018-07-06T06:49:51.257Z,97866.73
2018-07-06T06:52:20.182Z,97865.52
2018-07-06T06:54:48.816Z,97862.83
2018-07-06T06:57:17.615Z,97868.06
2018-07-06T06:59:46.313Z,97871.18
2018-07-06T07:02:15.056Z,97864.27
2018-07-06T07:04:43.805Z,97874.83
2018-07-06T07:07:12.494Z,97873.26
2018-07-06T07:09:41.191Z,97872.86
2018-07-06T07:12:10.421Z,97878.30
2018-07-06T07:14:39.135Z,97883.28
2018-07-06T07:17:07.813Z,97878.78
2018-07-06T07:19:36.460Z,97886.49
2018-07-06T07:22:05.059Z,97879.42
2018-07-06T07:24:33.733Z,97882.70
2018-07-06T07:27:02.393Z,97882.95
2018-07-06T07:29:31.726Z,97880.92
2018-07-06T07:32:00.573Z,97886.28
2018-07-06T07:34:29.529Z,97888.77
2018-07-06T07:36:58.323Z,97891.84
2018-07-06T07:39:26.954Z,97883.44
2018-07-06T07:41:56.857Z,97894.00
2018-07-06T07:44:25.432Z,97887.09
2018-07-06T07:46:54.388Z,97891.28
2018-07-06T07:49:23.061Z,97892.08
2018-07-06T07:52:08.291Z,97892.42
2018-07-06T07:54:56.386Z,97894.92
2018-07-06T07:57:25.128Z,97891.06
2018-07-06T07:59:54.840Z,97896.27
2018-07-06T08:02:23.686Z,97897.16
2018-07-06T08:04:53.692Z,97893.87
2018-07-06T08:07:23.374Z,97898.55
2018-07-06T08:09:51.963Z,97895.12
2018-07-06T08:12:20.577Z,97901.94
2018-07-06T08:14:49.557Z,97905.81
2018-07-06T08:17:18.156Z,97905.77
2018-07-06T08:19:46.821Z,97906.98
2018-07-06T08:22:15.490Z,97917.55
2018-07-06T08:24:44.116Z,97918.91
2018-07-06T08:27:12.689Z,97921.13
2018-07-06T08:29:41.358Z,97919.94
2018-07-06T08:32:09.966Z,97926.42
2018-07-06T08:34:49.710Z,97925.10
2018-07-06T08:37:30.979Z,97928.40
2018-07-06T08:40:00.330Z,97924.02
2018-07-06T08:42:30.857Z,97930.14
2018-07-06T08:45:00.210Z,97935.29
2018-07-06T08:47:29.460Z,97934.09
2018-07-06T08:49:58.835Z,97935.93
2018-07-06T08:52:27.827Z,97933.42
2018-07-06T08:54:56.487Z,97946.53
2018-07-06T08:57:26.361Z,97948.55
2018-07-06T08:59:55.271Z,97948.33
2018-07-06T09:02:25.026Z,97950.97
2018-07-06T09:04:54.597Z,97944.45
2018-07-06T09:07:24.068Z,97945.24
2018-07-06T09:09:53.153Z,97949.57
2018-07-06T09:12:21.815Z,97947.98
2018-07-06T09:14:51.495Z,97948.58
2018-07-06T09:17:20.759Z,97945.44
2018-07-06T09:19:49.978Z,97949.47
2018-07-06T09:22:18.878Z,97959.44
2018-07-06T09:24:48.717Z,97953.47
2018-07-06T09:27:17.496Z,97956.48
2018-07-06T09:29:46.098Z,97968.48
2018-07-06T09:32:14.650Z,97967.13
2018-07-06T09:34:43.581Z,97964.48
2018-07-06T09:37:12.355Z,97968.30
2018-07-06T09:39:41.931Z,97968.98
2018-07-06T09:42:10.644Z,97962.98
2018-07-06T09:44:39.401Z,97963.12
2018-07-06T09:47:08.968Z,97963.55
2018-07-06T09:49:37.685Z,97972.02
2018-07-06T09:52:06.353Z,97965.44
2018-07-06T09:54:35.094Z,97967.83
2018-07-06T09:57:03.752Z,97962.08
2018-07-06T09:59:33.690Z,97957.10
2018-07-06T10:02:02.387Z,97964.05
2018-07-06T10:04:31.580Z,97967.80
2018-07-06T10:07:00.258Z,97953.95
2018-07-06T10:09:29.059Z,97951.47
2018-07-06T10:11:57.815Z,97953.16
2018-07-06T10:14:26.414Z,97960.52
2018-07-06T10:16:55.151Z,97957.99
2018-07-06T10:19:24.525Z,97962.50
2018-07-06T10:21:53.158Z,97959.09
2018-07-06T10:24:21.811Z,97959.84
2018-07-06T10:26:50.550Z,97957.50
2018-07-06T10:29:36.557Z,97959.67
2018-07-06T10:32:21.927Z,97951.28
2018-07-06T10:34:50.683Z,97950.16
2018-07-06T10:37:19.984Z,97956.61
2018-07-06T10:39:49.266Z,97958.02
2018-07-06T10:42:17.896Z,97954.12
2018-07-06T10:44:47.186Z,97944.59
2018-07-06T10:47:15.900Z,97947.03
2018-07-06T10:49:44.756Z,97945.76
2018-07-06T10:52:14.746Z,97955.43
2018-07-06T10:54:44.025Z,97950.95
2018-07-06T10:57:12.862Z,97953.11
2018-07-06T10:59:41.524Z,97954.06
2018-07-06T11:02:10.268Z,97947.88
2018-07-06T11:04:39.119Z,97955.75
2018-07-06T11:07:08.372Z,97959.81
2018-07-06T11:12:20.049Z,97958.30
2018-07-06T11:14:49.109Z,97950.25
2018-07-06T11:17:17.761Z,97947.40
2018-07-06T11:19:46.513Z,97951.33
2018-07-06T11:22:15.346Z,97959.42
2018-07-06T11:24:44.065Z,97958.98
2018-07-06T11:27:12.708Z,97954.30
2018-07-06T11:29:41.339Z,97952.58
2018-07-06T11:32:10.776Z,97951.37
2018-07-06T11:34:40.137Z,97955.22
2018-07-06T11:37:09.372Z,97955.92
2018-07-06T11:39:38.104Z,97952.52
2018-07-06T11:42:06.927Z,97957.25
2018-07-06T11:44:37.196Z,97955.50
2018-07-06T11:47:07.573Z,97958.63
2018-07-06T11:49:36.252Z,97957.61
2018-07-06T11:52:05.399Z,97962.43
2018-07-06T11:54:34.718Z,97962.05
2018-07-06T11:57:04.632Z,97952.26
2018-07-06T11:59:33.310Z,97950.05
2018-07-06T12:02:02.056Z,97969.25
2018-07-06T12:04:30.813Z,97990.59
2018-07-06T12:06:59.579Z,97983.80
2018-07-06T12:09:28.511Z,97982.18
2018-07-06T12:11:57.577Z,97981.48
2018-07-06T12:14:26.927Z,97977.38
2018-07-06T12:16:55.539Z,97977.17
2018-07-06T12:19:24.875Z,97982.57
2018-07-06T12:22:05.676Z,97974.13
2018-07-06T12:24:42.355Z,97979.74
2018-07-06T12:27:27.916Z,97973.39
2018-07-06T12:30:01.252Z,97978.06
2018-07-06T12:32:30.880Z,97983.86
2018-07-06T12:35:05.503Z,97995.14
2018-07-06T12:37:34.142Z,98007.28
2018-07-06T12:40:03.536Z,98005.30
2018-07-06T12:42:34.706Z,97996.30
2018-07-06T12:45:04.250Z,97986.08
2018-07-06T12:47:33.479Z,97979.70
2018-07-06T12:50:02.225Z,97977.31
2018-07-06T12:52:30.960Z,97973.92
2018-07-06T12:54:59.675Z,97975.29
2018-07-06T12:57:31.182Z,97983.30
2018-07-06T13:00:01.006Z,97975.78
2018-07-06T13:02:32.299Z,97968.27
2018-07-06T13:05:00.982Z,97954.62
2018-07-06T13:07:30.463Z,97958.57
2018-07-06T13:09:59.068Z,97961.22
2018-07-06T13:12:27.665Z,97956.32
2018-07-06T13:14:56.343Z,97961.44
2018-07-06T13:17:25.773Z,97966.57
2018-07-06T13:19:54.575Z,97968.05
2018-07-06T13:22:23.304Z,97969.69
2018-07-06T13:24:52.402Z,97956.53
2018-07-06T13:27:21.898Z,97966.12
2018-07-06T13:29:50.728Z,97959.70
2018-07-06T13:32:20.342Z,97967.41
2018-07-06T13:34:49.285Z,97966.27
2018-07-06T13:37:18.074Z,97955.52
2018-07-06T13:39:46.723Z,97958.34
2018-07-06T13:42:15.613Z,97951.92
2018-07-06T13:44:44.407Z,97956.35
2018-07-06T13:47:13.100Z,97963.17
2018-07-06T13:49:41.940Z,97959.12
2018-07-06T13:52:10.620Z,97963.72
2018-07-06T13:54:39.348Z,97957.72
2018-07-06T13:57:10.171Z,97961.88
2018-07-06T13:59:40.174Z,97968.36
2018-07-06T14:02:09.236Z,97962.54
2018-07-06T14:04:38.881Z,97960.39
2018-07-06T14:07:07.809Z,97959.64
2018-07-06T14:09:36.739Z,97963.34
2018-07-06T14:12:05.389Z,97962.22
2018-07-06T14:14:35.331Z,97951.73
2018-07-06T14:17:04.149Z,97960.43
2018-07-06T14:19:33.434Z,97958.12
2018-07-06T14:22:02.200Z,97968.41
2018-07-06T14:24:30.959Z,97967.59
2018-07-06T14:26:59.929Z,97973.28
2018-07-06T14:29:30.274Z,97973.64
2018-07-06T14:32:03.137Z,97970.80
2018-07-06T14:34:32.572Z,97965.47
2018-07-06T14:37:02.465Z,97965.59
2018-07-06T14:39:31.357Z,97958.37
2018-07-06T14:42:01.390Z,97958.77
2018-07-06T14:44:30.049Z,97958.83
2018-07-06T14:46:58.899Z,97954.34
2018-07-06T14:49:27.537Z,97953.33
2018-07-06T14:51:57.484Z,97946.64
2018-07-06T14:54:28.053Z,97946.23
2018-07-06T14:56:56.830Z,97952.80
2018-07-06T14:59:27.134Z,97948.64
2018-07-06T15:01:56.531Z,97953.70
2018-07-06T15:04:26.621Z,97952.64
2018-07-06T15:06:55.753Z,97945.86
2018-07-06T15:09:25.472Z,97947.45
2018-07-06T15:11:54.242Z,97953.76
2018-07-06T15:14:23.001Z,97958.95
2018-07-06T15:16:51.712Z,97955.03
2018-07-06T15:19:20.436Z,97956.33
2018-07-06T15:21:49.124Z,97950.70
2018-07-06T15:24:17.798Z,97951.31
2018-07-06T15:26:46.520Z,97949.71
2018-07-06T15:29:15.454Z,97951.23
2018-07-06T15:31:45.235Z,97943.59
2018-07-06T15:34:13.941Z,97945.34
2018-07-06T15:36:42.732Z,97940.91
2018-07-06T15:39:11.452Z,97944.94
2018-07-06T15:41:40.201Z,97947.50
2018-07-06T15:44:10.106Z,97949.23
2018-07-06T15:46:39.056Z,97950.29
2018-07-06T15:49:07.762Z,97958.40
2018-07-06T15:51:37.451Z,97957.20
2018-07-06T15:54:06.139Z,97954.27
2018-07-06T15:56:34.860Z,97952.48
2018-07-06T15:59:03.498Z,97951.30
2018-07-06T16:01:32.217Z,97950.15
2018-07-06T16:04:01.610Z,97948.41
2018-07-06T16:06:31.258Z,97950.11
2018-07-06T16:08:59.939Z,97950.83
2018-07-06T16:11:28.702Z,97946.61
2018-07-06T16:13:57.271Z,97947.14
2018-07-06T16:16:25.980Z,97942.60
2018-07-06T16:18:56.329Z,97940.14
2018-07-06T16:21:25.406Z,97937.77
2018-07-06T16:23:54.596Z,97943.78
2018-07-06T16:26:24.211Z,97942.28
2018-07-06T16:28:54.286Z,97938.62
2018-07-06T16:31:22.881Z,97944.45
2018-07-06T16:33:51.577Z,97951.55
2018-07-06T16:36:20.211Z,97970.70
2018-07-06T16:38:48.902Z,97976.16
2018-07-06T16:41:17.638Z,97984.42
2018-07-06T16:43:46.371Z,97981.89
2018-07-06T16:46:15.329Z,97976.08
2018-07-06T16:48:44.000Z,97983.89
2018-07-06T16:51:12.671Z,97980.61
2018-07-06T16:53:41.475Z,97987.80
2018-07-06T16:56:11.541Z,97982.26
2018-07-06T16:58:40.251Z,97989.16
2018-07-06T17:01:09.168Z,97992.84
2018-07-06T17:03:37.991Z,98000.30
2018-07-06T17:06:06.721Z,97994.83
2018-07-06T17:08:36.106Z,97999.28
2018-07-06T17:11:04.889Z,98008.80
2018-07-06T17:13:33.515Z,98006.17
2018-07-06T17:16:02.204Z,98015.00
2018-07-06T17:18:32.257Z,98020.20
2018-07-06T17:21:03.178Z,98019.81
2018-07-06T17:23:32.462Z,98024.04
2018-07-06T17:26:01.142Z,98030.88
2018-07-06T17:28:30.263Z,98033.42
2018-07-06T17:31:09.024Z,98034.48
2018-07-06T17:33:38.102Z,98032.84
2018-07-06T17:36:07.557Z,98038.44
2018-07-06T17:38:38.794Z,98035.97
2018-07-06T17:41:07.473Z,98037.02
2018-07-06T17:43:36.190Z,98038.36
2018-07-06T17:46:05.925Z,98035.58
2018-07-06T17:48:34.715Z,98036.58
2018-07-06T17:51:04.445Z,98031.72
2018-07-06T17:53:34.017Z,98037.38
2018-07-06T17:56:03.557Z,98031.51
2018-07-06T17:58:32.432Z,98041.03
2018-07-06T18:01:01.266Z,98041.49
2018-07-06T18:03:30.040Z,98039.67
2018-07-06T18:05:59.564Z,98040.97
2018-07-06T18:08:28.209Z,98042.05
2018-07-06T18:10:56.859Z,98049.16
2018-07-06T18:13:26.366Z,98045.66
2018-07-06T18:15:56.191Z,98041.83
2018-07-06T18:18:24.850Z,98034.00
2018-07-06T18:20:53.940Z,98036.91
2018-07-06T18:23:22.684Z,98040.97
2018-07-06T18:25:51.444Z,98032.69
2018-07-06T18:28:20.135Z,98034.92
2018-07-06T18:30:48.918Z,98036.30
2018-07-06T18:33:18.542Z,98041.59
2018-07-06T18:35:47.656Z,98043.02
2018-07-06T18:38:16.326Z,98047.10
2018-07-06T18:40:45.168Z,98049.41
2018-07-06T18:43:14.073Z,98047.73
2018-07-06T18:45:42.905Z,98050.97
2018-07-06T18:48:11.612Z,98053.59
2018-07-06T18:50:40.669Z,98056.70
2018-07-06T18:53:10.010Z,98058.68
2018-07-06T18:55:39.191Z,98067.17
2018-07-06T18:58:08.685Z,98066.41
2018-07-06T19:00:37.440Z,98071.32
2018-07-06T19:03:06.254Z,98073.09
2018-07-06T19:05:35.057Z,98073.48
2018-07-06T19:08:03.846Z,98074.72
2018-07-06T19:10:32.555Z,98083.74
2018-07-06T19:13:01.614Z,98089.80
2018-07-06T19:15:30.731Z,98098.75
2018-07-06T19:17:59.395Z,98095.73
2018-07-06T19:20:28.122Z,97996.89
2018-07-06T19:22:56.857Z,98097.02
2018-07-06T19:25:25.687Z,98092.06
2018-07-06T19:27:55.383Z,98096.09
2018-07-06T19:30:24.085Z,98092.86
2018-07-06T19:32:52.958Z,98098.65
2018-07-06T19:35:21.707Z,98100.97
2018-07-06T19:37:50.542Z,98107.68
2018-07-06T19:40:19.400Z,98111.83
2018-07-06T19:42:49.206Z,98114.95
2018-07-06T19:45:17.921Z,98118.66
2018-07-06T19:47:46.581Z,98128.18
2018-07-06T19:50:15.979Z,98132.73
2018-07-06T19:52:48.386Z,98135.55
2018-07-06T19:55:18.462Z,98137.53
2018-07-06T19:57:47.243Z,98135.25
2018-07-06T20:00:17.065Z,98148.12
2018-07-06T20:02:45.783Z,98136.16
2018-07-06T20:05:15.118Z,98153.01
2018-07-06T20:07:44.021Z,98153.48
2018-07-06T20:10:12.731Z,98158.33
2018-07-06T20:12:41.789Z,98159.05
2018-07-06T20:15:10.535Z,98160.53
2018-07-06T20:17:39.255Z,98163.45
2018-07-06T20:20:08.906Z,98164.08
2018-07-06T20:22:37.563Z,98165.45
2018-07-06T20:25:06.645Z,98175.19
2018-07-06T20:27:35.305Z,98180.11
2018-07-06T20:30:04.097Z,98177.36
2018-07-06T20:32:32.746Z,98179.77
2018-07-06T20:35:02.361Z,98181.84
2018-07-06T20:37:31.072Z,98188.49
2018-07-06T20:39:59.772Z,98193.84
2018-07-06T20:42:28.524Z,98194.37
2018-07-06T20:44:57.597Z,98199.84
2018-07-06T20:47:26.499Z,98206.34
2018-07-06T20:49:55.281Z,98208.39
2018-07-06T20:52:24.005Z,98209.86
2018-07-06T20:54:52.729Z,98212.18
2018-07-06T20:57:21.399Z,98213.36
2018-07-06T20:59:50.143Z,98219.72
2018-07-06T21:02:18.834Z,98223.95
2018-07-06T21:04:47.491Z,98224.98
2018-07-06T21:07:16.817Z,98231.56
2018-07-06T21:09:46.098Z,98234.14
2018-07-06T21:12:15.448Z,98233.58
2018-07-06T21:14:45.599Z,98233.93
2018-07-06T21:17:15.030Z,98231.75
2018-07-06T21:19:43.977Z,98232.13
2018-07-06T21:22:12.899Z,98231.75
2018-07-06T21:24:41.522Z,98230.05
2018-07-06T21:27:10.399Z,98190.77
2018-07-06T21:29:39.709Z,98226.52
2018-07-06T21:32:09.225Z,98227.09
2018-07-06T21:34:38.530Z,98226.77
2018-07-06T21:37:08.019Z,98227.75
2018-07-06T21:39:37.303Z,98232.30
2018-07-06T21:42:06.122Z,98231.73
2018-07-06T21:44:34.951Z,98238.23
2018-07-06T21:47:04.813Z,98239.58
2018-07-06T21:49:33.523Z,98241.08
2018-07-06T21:52:02.331Z,98238.47
2018-07-06T21:54:31.887Z,98243.23
2018-07-06T21:57:01.647Z,98250.17
2018-07-06T21:59:31.009Z,98253.91
2018-07-06T22:02:00.938Z,98253.57
2018-07-06T22:04:29.941Z,98253.57
2018-07-06T22:06:58.636Z,98250.61
2018-07-06T22:09:27.386Z,98251.95
2018-07-06T22:11:56.759Z,98251.50
2018-07-06T22:14:27.026Z,98255.25
2018-07-06T22:16:56.143Z,98257.52
2018-07-06T22:19:26.160Z,98258.32
2018-07-06T22:21:55.669Z,98258.19
2018-07-06T22:24:24.885Z,98261.89
2018-07-06T22:26:54.211Z,98268.67
2018-07-06T22:29:22.968Z,98266.53
2018-07-06T22:31:52.017Z,98271.28
2018-07-06T22:34:20.788Z,98270.25
2018-07-06T22:36:49.430Z,98266.05
2018-07-06T22:39:18.056Z,98269.20
2018-07-06T22:41:46.730Z,98267.70
2018-07-06T22:44:15.353Z,98267.79
2018-07-06T22:46:44.809Z,98267.93
2018-07-06T22:49:14.711Z,98272.91
2018-07-06T22:51:45.532Z,98271.13
2018-07-06T22:54:15.025Z,98271.31
2018-07-06T22:56:44.330Z,98264.83
2018-07-06T22:59:12.943Z,98267.41
2018-07-06T23:01:42.834Z,98258.27
2018-07-06T23:04:12.374Z,98267.25
2018-07-06T23:06:41.405Z,98264.92
2018-07-06T23:09:10.030Z,98261.53
2018-07-06T23:11:38.866Z,98259.33
2018-07-06T23:14:07.828Z,98262.44
2018-07-06T23:16:36.480Z,98265.66
2018-07-06T23:19:05.836Z,98263.91
2018-07-06T23:21:35.247Z,98259.73
2018-07-06T23:24:05.128Z,98264.72
2018-07-06T23:26:35.306Z,98264.16
2018-07-06T23:29:04.074Z,98259.62
2018-07-06T23:31:33.364Z,98263.56
2018-07-06T23:34:02.833Z,98273.42
2018-07-06T23:36:31.517Z,98269.02
2018-07-06T23:39:00.125Z,98269.81
2018-07-06T23:41:29.206Z,98273.28
2018-07-06T23:43:59.355Z,98274.78
2018-07-06T23:46:29.620Z,98272.86
2018-07-06T23:48:58.858Z,98272.83
2018-07-06T23:51:28.196Z,98273.30
2018-07-06T23:53:57.552Z,98269.72
2018-07-06T23:56:26.174Z,98268.61
2018-07-06T23:58:54.792Z,98275.95
